createdAt,value
2022-08-17T00:00:34.472Z,18.50
2022-08-17T00:03:19.760Z,16.60
2022-08-17T00:06:01.546Z,18.00
2022-08-17T00:08:32.557Z,17.27
2022-08-17T00:11:00.829Z,14.20
2022-08-17T00:13:32.407Z,14.35
2022-08-17T00:16:03.263Z,19.05
2022-08-17T00:19:02.139Z,17.83
2022-08-17T00:21:23.808Z,17.42
2022-08-17T00:23:53.853Z,19.85
2022-08-17T00:26:34.722Z,20.05
2022-08-17T00:29:09.286Z,17.50
2022-08-17T00:31:37.802Z,14.80
2022-08-17T00:34:06.574Z,16.85
2022-08-17T00:36:35.184Z,14.50
2022-08-17T00:39:03.010Z,15.50
2022-08-17T00:41:31.648Z,15.40
2022-08-17T00:44:06.285Z,21.65
2022-08-17T00:46:39.365Z,19.33
2022-08-17T00:49:08.368Z,15.13
2022-08-17T00:51:48.936Z,16.85
2022-08-17T00:54:25.654Z,16.48
2022-08-17T00:57:30.170Z,19.02
2022-08-17T01:00:17.073Z,15.85
2022-08-17T01:02:45.920Z,15.63
2022-08-17T01:05:20.689Z,15.27
2022-08-17T01:07:50.953Z,15.13
2022-08-17T01:10:58.730Z,14.65
2022-08-17T01:13:11.355Z,17.77
2022-08-17T01:15:42.152Z,18.73
2022-08-17T01:18:14.452Z,21.52
2022-08-17T01:20:48.113Z,19.35
2022-08-17T01:23:20.459Z,20.35
2022-08-17T01:25:53.411Z,19.45
2022-08-17T01:28:33.231Z,20.35
2022-08-17T01:31:10.387Z,17.35
2022-08-17T01:33:38.568Z,20.40
2022-08-17T01:36:07.595Z,22.75
2022-08-17T01:38:37.465Z,15.05
2022-08-17T01:41:14.396Z,15.57
2022-08-17T01:43:45.853Z,19.02
2022-08-17T01:46:22.170Z,18.27
2022-08-17T01:48:51.332Z,16.10
2022-08-17T01:51:19.923Z,16.65
2022-08-17T01:53:55.459Z,19.77
2022-08-17T01:56:25.310Z,16.08
2022-08-17T01:58:52.870Z,16.48
2022-08-17T02:01:23.634Z,17.75
2022-08-17T02:03:59.172Z,15.55
2022-08-17T02:06:53.715Z,15.80
2022-08-17T02:09:25.489Z,20.80
2022-08-17T02:11:54.835Z,20.02
2022-08-17T02:14:25.045Z,20.13
2022-08-17T02:16:53.498Z,18.67
2022-08-17T02:19:22.026Z,21.23
2022-08-17T02:21:53.089Z,19.45
2022-08-17T02:24:58.894Z,16.98
2022-08-17T02:27:15.553Z,18.60
2022-08-17T02:29:43.066Z,22.42
2022-08-17T02:32:20.666Z,20.40
2022-08-17T02:34:53.360Z,17.30
2022-08-17T02:37:21.062Z,25.85
2022-08-17T02:39:48.611Z,22.60
2022-08-17T02:42:16.203Z,17.10
2022-08-17T02:44:43.728Z,17.50
2022-08-17T02:47:12.599Z,21.08
2022-08-17T02:49:46.353Z,18.60
2022-08-17T02:52:43.217Z,17.95
2022-08-17T02:55:14.317Z,19.48
2022-08-17T02:57:41.866Z,18.65
2022-08-17T03:00:29.174Z,14.77
2022-08-17T03:02:57.551Z,22.15
2022-08-17T03:05:27.530Z,16.33
2022-08-17T03:07:55.947Z,21.92
2022-08-17T03:10:25.688Z,15.43
2022-08-17T03:12:53.995Z,16.50
2022-08-17T03:15:29.259Z,17.00
2022-08-17T03:17:57.927Z,10.98
2022-08-17T03:20:26.781Z,15.55
2022-08-17T03:23:01.776Z,14.85
2022-08-17T03:25:35.819Z,18.45
2022-08-17T03:28:05.581Z,16.70
2022-08-17T03:30:34.389Z,15.68
2022-08-17T03:33:05.967Z,14.95
2022-08-17T03:35:35.009Z,18.33
2022-08-17T03:38:04.229Z,22.75
2022-08-17T03:40:55.435Z,18.55
2022-08-17T03:43:21.131Z,17.65
2022-08-17T03:46:11.017Z,21.83
2022-08-17T03:49:13.573Z,16.23
2022-08-17T03:52:03.839Z,15.20
2022-08-17T03:54:49.793Z,14.25
2022-08-17T03:57:17.318Z,13.48
2022-08-17T03:59:45.311Z,12.55
2022-08-17T04:02:18.312Z,16.20
2022-08-17T04:04:46.784Z,14.80
2022-08-17T04:07:14.384Z,21.90
2022-08-17T04:09:43.039Z,13.07
2022-08-17T04:12:11.727Z,13.90
2022-08-17T04:14:52.568Z,15.57
2022-08-17T04:17:27.574Z,14.80
2022-08-17T04:19:56.018Z,15.60
2022-08-17T04:22:32.765Z,13.35
2022-08-17T04:25:24.395Z,16.60
2022-08-17T04:27:52.399Z,13.98
2022-08-17T04:30:20.047Z,13.23
2022-08-17T04:33:00.818Z,15.20
2022-08-17T04:35:38.721Z,14.75
2022-08-17T04:38:07.809Z,17.50
2022-08-17T04:41:07.340Z,12.85
2022-08-17T04:43:35.860Z,18.45
2022-08-17T04:46:19.339Z,16.80
2022-08-17T04:48:49.714Z,13.40
2022-08-17T04:51:20.733Z,27.63
2022-08-17T04:53:54.375Z,21.83
2022-08-17T04:56:25.208Z,14.23
2022-08-17T04:58:55.224Z,16.17
2022-08-17T05:01:25.018Z,11.38
2022-08-17T05:03:54.407Z,14.88
2022-08-17T05:06:25.631Z,12.25
2022-08-17T05:08:53.651Z,19.50
2022-08-17T05:11:25.610Z,16.23
2022-08-17T05:13:53.813Z,15.68
2022-08-17T05:16:22.810Z,14.60
2022-08-17T05:18:50.601Z,14.48
2022-08-17T05:21:18.696Z,13.90
2022-08-17T05:23:50.320Z,13.15
2022-08-17T05:26:26.963Z,16.90
2022-08-17T05:28:59.629Z,13.23
2022-08-17T05:31:29.616Z,19.75
2022-08-17T05:33:57.467Z,15.20
2022-08-17T05:36:41.902Z,15.63
2022-08-17T05:39:15.930Z,19.40
2022-08-17T05:41:48.393Z,15.05
2022-08-17T05:44:16.620Z,18.65
2022-08-17T05:46:50.718Z,15.77
2022-08-17T05:49:28.063Z,18.08
2022-08-17T05:52:18.834Z,17.45
2022-08-17T05:55:06.430Z,18.30
2022-08-17T05:58:00.229Z,18.70
2022-08-17T06:00:51.007Z,18.90
2022-08-17T06:03:40.061Z,18.75
2022-08-17T06:06:31.402Z,19.25
2022-08-17T06:09:33.417Z,19.27
2022-08-17T06:12:24.658Z,20.65
2022-08-17T06:15:01.446Z,24.15
2022-08-17T06:17:29.138Z,21.08
2022-08-17T06:20:04.347Z,20.50
2022-08-17T06:22:36.724Z,24.98
2022-08-17T06:25:19.515Z,25.33
2022-08-17T06:27:55.989Z,25.38
2022-08-17T06:30:26.770Z,21.48
2022-08-17T06:32:59.651Z,25.85
2022-08-17T06:35:38.019Z,24.17
2022-08-17T06:38:38.886Z,22.98
2022-08-17T06:41:45.344Z,26.85
2022-08-17T06:44:43.563Z,27.77
2022-08-17T06:47:33.001Z,25.70
2022-08-17T06:50:20.654Z,28.80
2022-08-17T06:53:03.117Z,24.48
2022-08-17T06:55:52.751Z,26.38
2022-08-17T06:58:29.573Z,28.63
2022-08-17T07:01:01.187Z,34.33
2022-08-17T07:03:44.446Z,33.45
2022-08-17T07:06:16.666Z,30.83
2022-08-17T07:09:11.122Z,36.92
2022-08-17T07:11:54.309Z,30.77
2022-08-17T07:14:57.057Z,29.38
2022-08-17T07:17:46.823Z,29.88
2022-08-17T07:20:22.819Z,25.65
2022-08-17T07:23:15.349Z,25.08
2022-08-17T07:25:43.344Z,25.00
2022-08-17T07:28:13.714Z,29.05
2022-08-17T07:30:49.420Z,27.70
2022-08-17T07:33:30.117Z,24.38
2022-08-17T07:35:59.458Z,26.02
2022-08-17T07:38:44.802Z,24.13
2022-08-17T07:41:26.634Z,20.13
2022-08-17T07:51:43.192Z,17.50
2022-08-17T07:57:36.442Z,23.55
2022-08-17T08:00:16.304Z,19.05
2022-08-17T08:03:00.751Z,18.45
2022-08-17T08:05:48.704Z,16.10
2022-08-17T08:08:26.210Z,17.08
2022-08-17T08:14:31.194Z,21.15
2022-08-17T08:17:27.870Z,15.30
2022-08-17T08:20:00.876Z,21.35
2022-08-17T08:23:12.945Z,17.38
2022-08-17T08:26:21.323Z,23.88
2022-08-17T08:32:21.517Z,18.88
2022-08-17T08:35:09.649Z,16.35
2022-08-17T08:37:49.029Z,19.30
2022-08-17T08:40:31.611Z,21.92
2022-08-17T08:43:26.173Z,19.30
2022-08-17T08:46:37.553Z,15.23
2022-08-17T08:50:02.144Z,22.10
2022-08-17T08:52:37.329Z,19.90
2022-08-17T08:55:28.099Z,20.83
2022-08-17T08:58:53.306Z,18.05
2022-08-17T09:02:37.814Z,19.65
2022-08-17T09:05:22.814Z,22.20
2022-08-17T09:08:14.774Z,18.10
2022-08-17T09:11:12.274Z,19.95
2022-08-17T09:16:25.046Z,21.30
2022-08-17T09:18:59.158Z,17.75
2022-08-17T09:22:01.653Z,18.70
2022-08-17T09:54:40.482Z,18.75
2022-08-17T09:57:48.050Z,21.35
2022-08-17T10:01:01.239Z,21.30
2022-08-17T10:03:54.179Z,22.13
2022-08-17T10:07:36.314Z,17.67
2022-08-17T10:09:50.430Z,17.30
2022-08-17T10:13:03.179Z,19.10
2022-08-17T10:15:53.462Z,16.27
2022-08-17T10:18:37.929Z,19.20
2022-08-17T10:28:29.728Z,19.33
2022-08-17T10:31:33.789Z,16.17
2022-08-17T10:34:41.073Z,15.43
2022-08-17T10:37:34.786Z,17.98
2022-08-17T10:40:15.506Z,12.23
2022-08-17T10:43:26.135Z,16.95
2022-08-17T10:48:08.006Z,14.68
2022-08-17T10:50:00.465Z,12.98
2022-08-17T10:52:47.507Z,10.45
2022-08-17T10:55:28.813Z,13.00
2022-08-17T10:58:22.165Z,12.82
2022-08-17T11:03:55.097Z,14.98
2022-08-17T11:06:52.317Z,10.77
2022-08-17T11:09:33.836Z,10.43
2022-08-17T11:12:25.635Z,14.82
2022-08-17T11:15:39.427Z,14.68
2022-08-17T11:18:50.791Z,13.75
2022-08-17T11:21:52.042Z,11.95
2022-08-17T11:24:45.545Z,13.70
2022-08-17T11:27:38.428Z,8.18
2022-08-17T11:30:49.751Z,19.95
2022-08-17T11:33:38.187Z,16.02
2022-08-17T11:37:11.828Z,11.38
2022-08-17T11:40:45.911Z,9.88
2022-08-17T11:43:42.959Z,10.32
2022-08-17T11:47:00.815Z,10.30
2022-08-17T11:49:58.132Z,14.60
2022-08-17T11:53:37.938Z,12.55
2022-08-17T11:56:44.395Z,17.65
2022-08-17T11:59:45.656Z,9.10
2022-08-17T12:02:34.225Z,11.07
2022-08-17T12:05:46.569Z,13.50
2022-08-17T12:08:30.403Z,10.32
2022-08-17T12:12:11.277Z,11.55
2022-08-17T12:15:05.898Z,13.82
2022-08-17T12:17:40.254Z,15.05
2022-08-17T12:20:45.460Z,15.27
2022-08-17T12:23:35.634Z,14.55
2022-08-17T12:26:36.055Z,12.23
2022-08-17T12:29:35.137Z,15.35
2022-08-17T12:35:39.321Z,15.63
2022-08-17T12:38:33.102Z,17.95
2022-08-17T12:41:54.709Z,16.73
2022-08-17T12:45:07.733Z,16.15
2022-08-17T12:47:59.665Z,16.98
2022-08-17T12:50:34.915Z,19.52
2022-08-17T12:54:00.029Z,14.95
2022-08-17T12:56:32.508Z,17.77
2022-08-17T12:59:05.389Z,17.00
2022-08-17T13:01:52.767Z,15.48
2022-08-17T13:05:35.109Z,13.00
2022-08-17T13:11:26.799Z,15.73
2022-08-17T13:24:11.025Z,13.00
2022-08-17T13:27:22.287Z,14.13
2022-08-17T13:30:25.508Z,14.52
2022-08-17T13:33:44.553Z,14.60
2022-08-17T13:40:21.354Z,16.95
2022-08-17T13:43:10.828Z,14.32
2022-08-17T13:46:02.380Z,12.13
2022-08-17T13:49:05.442Z,15.07
2022-08-17T13:51:56.968Z,12.57
2022-08-17T13:55:36.597Z,12.20
2022-08-17T13:59:53.463Z,12.75
2022-08-17T14:03:00.809Z,13.10
2022-08-17T14:05:38.025Z,14.20
2022-08-17T14:08:14.888Z,12.63
2022-08-17T14:20:34.939Z,11.25
2022-08-17T14:23:05.065Z,10.35
2022-08-17T14:25:44.112Z,11.10
2022-08-17T14:28:18.815Z,10.65
2022-08-17T14:31:18.955Z,8.82
2022-08-17T14:34:00.867Z,13.30
2022-08-17T14:36:45.410Z,10.95
2022-08-17T14:39:24.055Z,9.05
2022-08-17T14:45:27.391Z,9.00
2022-08-17T14:48:17.864Z,11.68
2022-08-17T14:50:59.000Z,10.25
2022-08-17T14:53:38.750Z,12.40
2022-08-17T14:56:18.358Z,10.10
2022-08-17T14:58:48.805Z,11.10
2022-08-17T15:01:59.105Z,15.68
2022-08-17T15:05:20.818Z,11.38
2022-08-17T15:08:25.297Z,10.52
2022-08-17T15:13:51.992Z,10.00
2022-08-17T15:16:41.257Z,9.32
2022-08-17T15:19:31.959Z,15.75
2022-08-17T15:25:27.657Z,11.10
2022-08-17T15:28:06.249Z,12.45
2022-08-17T15:30:45.242Z,11.30
2022-08-17T15:33:34.743Z,18.02
2022-08-17T15:36:16.432Z,19.23
2022-08-17T15:38:50.121Z,20.45
2022-08-17T15:41:28.510Z,19.33
2022-08-17T15:45:09.178Z,20.48
2022-08-17T15:47:45.171Z,16.35
2022-08-17T15:50:21.499Z,15.05
2022-08-17T15:53:08.859Z,15.10
2022-08-17T15:55:38.678Z,15.98
2022-08-17T15:58:14.283Z,16.52
2022-08-17T16:03:01.779Z,18.13
2022-08-17T16:04:32.407Z,20.35
2022-08-17T16:07:15.237Z,26.52
2022-08-17T16:10:18.669Z,24.73
2022-08-17T16:13:17.842Z,20.80
2022-08-17T16:16:08.512Z,21.88
2022-08-17T16:18:41.679Z,20.25
2022-08-17T16:21:27.945Z,24.10
2022-08-17T16:24:25.110Z,27.00
2022-08-17T16:27:11.682Z,23.75
2022-08-17T16:29:47.605Z,25.80
2022-08-17T16:32:36.878Z,23.00
2022-08-17T16:35:25.144Z,26.92
2022-08-17T16:39:08.494Z,31.60
2022-08-17T16:41:56.558Z,21.00
2022-08-17T16:45:02.280Z,28.40
2022-08-17T16:47:37.190Z,27.67
2022-08-17T16:50:59.946Z,24.95
2022-08-17T16:54:09.007Z,25.10
2022-08-17T16:57:09.204Z,23.77
2022-08-17T17:00:19.932Z,29.73
2022-08-17T17:03:58.042Z,33.13
2022-08-17T17:07:04.415Z,28.20
2022-08-17T17:10:03.365Z,28.40
2022-08-17T17:13:02.278Z,26.67
2022-08-17T17:20:10.900Z,28.50
2022-08-17T17:23:35.211Z,29.40
2022-08-17T17:26:29.296Z,33.50
2022-08-17T17:29:17.779Z,27.67
2022-08-17T17:47:11.763Z,26.48
2022-08-17T17:49:53.703Z,26.08
2022-08-17T17:52:51.713Z,27.98
2022-08-17T17:56:04.630Z,26.77
2022-08-17T17:58:56.304Z,27.95
2022-08-17T18:02:08.493Z,23.52
2022-08-17T18:05:03.304Z,29.52
2022-08-17T18:08:14.643Z,22.30
2022-08-17T18:11:35.087Z,26.70
2022-08-17T18:14:56.669Z,24.17
2022-08-17T18:18:06.663Z,26.05
2022-08-17T18:20:53.980Z,24.20
2022-08-17T18:23:29.834Z,26.85
2022-08-17T18:26:01.292Z,27.63
2022-08-17T18:29:03.761Z,25.15
2022-08-17T18:32:48.643Z,29.70
2022-08-17T18:38:45.248Z,24.45
2022-08-17T18:41:45.351Z,25.23
2022-08-17T18:44:42.303Z,26.00
2022-08-17T18:47:21.654Z,25.40
2022-08-17T18:50:06.728Z,24.40
2022-08-17T18:53:19.989Z,28.83
2022-08-17T18:56:32.121Z,30.90
2022-08-17T19:02:56.284Z,37.42
2022-08-17T19:05:31.024Z,27.42
2022-08-17T19:08:30.646Z,22.25
2022-08-17T19:11:12.619Z,22.92
2022-08-17T19:14:08.706Z,24.35
2022-08-17T19:17:01.051Z,34.90
2022-08-17T19:20:00.193Z,26.90
2022-08-17T19:23:05.352Z,27.20
2022-08-17T19:26:23.356Z,32.47
2022-08-17T19:29:52.810Z,43.47
2022-08-17T19:32:31.993Z,33.70
2022-08-17T19:35:15.030Z,48.05
2022-08-17T19:38:13.257Z,26.42
2022-08-17T19:41:15.489Z,51.83
2022-08-17T19:44:09.127Z,101.88
2022-08-17T19:50:09.941Z,31.15
2022-08-17T20:03:36.425Z,27.15
2022-08-17T20:06:25.408Z,25.15
2022-08-17T20:10:20.017Z,25.10
2022-08-17T20:16:47.100Z,33.05
2022-08-17T20:20:19.406Z,33.20
2022-08-17T20:23:04.003Z,29.52
2022-08-17T20:26:17.145Z,23.55
2022-08-17T20:29:20.244Z,27.00
2022-08-17T20:32:21.197Z,98.07
2022-08-17T20:35:41.162Z,40.88
2022-08-17T20:38:46.604Z,33.30
2022-08-17T20:41:27.684Z,35.08
2022-08-17T20:44:07.799Z,33.35
2022-08-17T20:46:41.474Z,31.05
2022-08-17T20:49:15.003Z,28.48
2022-08-17T20:52:12.816Z,30.10
2022-08-17T20:54:48.917Z,31.88
2022-08-17T20:57:44.727Z,34.97
2022-08-17T21:01:20.406Z,32.08
2022-08-17T21:03:55.896Z,30.95
2022-08-17T21:06:26.966Z,30.92
2022-08-17T21:08:59.146Z,31.58
2022-08-17T21:11:57.320Z,29.75
2022-08-17T21:14:25.648Z,29.67
2022-08-17T21:17:15.165Z,29.85
2022-08-17T21:20:12.337Z,32.70
2022-08-17T21:23:04.755Z,34.63
2022-08-17T21:26:16.640Z,28.02
2022-08-17T21:29:30.290Z,29.40
2022-08-17T21:32:09.722Z,32.63
2022-08-17T21:35:07.283Z,30.48
2022-08-17T21:37:48.387Z,34.92
2022-08-17T21:40:39.441Z,33.60
2022-08-17T21:43:24.233Z,42.45
2022-08-17T21:46:00.577Z,38.05
2022-08-17T21:48:54.369Z,40.30
2022-08-17T21:51:27.697Z,39.00
2022-08-17T21:56:51.714Z,35.17
2022-08-17T21:59:27.248Z,40.90
2022-08-17T22:02:08.442Z,38.20
2022-08-17T22:04:58.461Z,38.78
2022-08-17T22:07:42.809Z,35.22
2022-08-17T22:13:31.901Z,31.08
2022-08-17T22:16:29.049Z,29.90
2022-08-17T22:22:06.485Z,31.63
2022-08-17T22:24:41.542Z,24.30
2022-08-17T22:27:12.007Z,26.33
2022-08-17T22:30:01.540Z,29.00
2022-08-17T22:32:55.309Z,22.52
2022-08-17T22:35:39.121Z,22.63
2022-08-17T22:38:23.213Z,22.38
2022-08-17T22:41:04.632Z,20.98
2022-08-17T22:43:38.510Z,22.45
2022-08-17T22:46:18.621Z,27.38
2022-08-17T22:51:42.741Z,23.75
2022-08-17T22:54:37.617Z,27.20
2022-08-17T22:57:25.380Z,24.23
2022-08-17T22:59:55.765Z,25.45
2022-08-17T23:02:50.281Z,25.10
2022-08-17T23:05:24.205Z,24.02
2022-08-17T23:07:53.235Z,27.70
2022-08-17T23:13:21.593Z,29.00
2022-08-17T23:15:51.597Z,25.88
2022-08-17T23:18:23.656Z,22.95
2022-08-17T23:20:51.332Z,25.98
2022-08-17T23:23:23.713Z,24.25
2022-08-17T23:25:53.812Z,22.88
2022-08-17T23:28:21.868Z,23.05
2022-08-17T23:30:51.599Z,23.00
2022-08-17T23:33:26.662Z,23.42
2022-08-17T23:35:54.272Z,23.00
2022-08-17T23:38:24.807Z,21.60
2022-08-17T23:40:53.903Z,20.08
2022-08-17T23:43:24.705Z,22.63
2022-08-17T23:46:00.800Z,23.35
2022-08-17T23:48:36.793Z,20.98
2022-08-17T23:51:09.270Z,21.52
2022-08-17T23:53:42.072Z,21.40
2022-08-17T23:56:24.519Z,28.30
2022-08-17T23:58:55.048Z,23.52
